sensor_id;sensor_type;location;lat;lon;timestamp;pressure;altitude;pressure_sealevel;temperature;humidity
63339;BME280;47485;51.378;-1.342;2023-03-21T00:02:04;99869.54;;;7.47;40.32
63339;BME280;47485;51.378;-1.342;2023-03-21T00:04:30;99871.01;;;4.03;44.22
63339;BME280;47485;51.378;-1.342;2023-03-21T00:06:57;99862.12;;;6.07;41.05
63339;BME280;47485;51.378;-1.342;2023-03-21T00:09:24;99861.76;;;7.05;40.29
63339;BME280;47485;51.378;-1.342;2023-03-21T00:11:50;99861.93;;;4.67;42.47
63339;BME280;47485;51.378;-1.342;2023-03-21T00:14:17;99862.70;;;4.63;44.09
63339;BME280;47485;51.378;-1.342;2023-03-21T00:16:44;99861.07;;;5.13;44.09
63339;BME280;47485;51.378;-1.342;2023-03-21T00:19:10;99848.25;;;7.35;41.56
63339;BME280;47485;51.378;-1.342;2023-03-21T00:21:38;99837.55;;;6.91;40.06
63339;BME280;47485;51.378;-1.342;2023-03-21T00:24:06;99835.84;;;5.00;41.75
63339;BME280;47485;51.378;-1.342;2023-03-21T00:26:34;99834.49;;;6.68;40.31
63339;BME280;47485;51.378;-1.342;2023-03-21T00:29:01;99832.09;;;5.40;41.02
63339;BME280;47485;51.378;-1.342;2023-03-21T00:31:28;99823.31;;;5.76;40.60
63339;BME280;47485;51.378;-1.342;2023-03-21T00:33:55;99814.32;;;6.84;39.22
63339;BME280;47485;51.378;-1.342;2023-03-21T00:36:22;99816.56;;;8.41;38.21
63339;BME280;47485;51.378;-1.342;2023-03-21T00:38:50;99814.76;;;7.42;38.38
63339;BME280;47485;51.378;-1.342;2023-03-21T00:41:18;99818.18;;;8.47;37.64
63339;BME280;47485;51.378;-1.342;2023-03-21T00:43:44;99812.47;;;6.58;39.61
63339;BME280;47485;51.378;-1.342;2023-03-21T00:46:11;99806.37;;;7.61;39.72
63339;BME280;47485;51.378;-1.342;2023-03-21T00:48:38;99807.99;;;7.09;38.86
63339;BME280;47485;51.378;-1.342;2023-03-21T00:51:11;99808.80;;;6.46;38.93
63339;BME280;47485;51.378;-1.342;2023-03-21T00:53:38;99802.54;;;8.40;37.92
63339;BME280;47485;51.378;-1.342;2023-03-21T00:56:06;99803.23;;;8.00;39.18
63339;BME280;47485;51.378;-1.342;2023-03-21T00:58:32;99797.35;;;6.37;39.59
63339;BME280;47485;51.378;-1.342;2023-03-21T01:00:59;99795.12;;;6.82;39.50
63339;BME280;47485;51.378;-1.342;2023-03-21T01:03:26;99795.11;;;7.31;36.79
63339;BME280;47485;51.378;-1.342;2023-03-21T01:05:52;99793.58;;;6.10;38.94
63339;BME280;47485;51.378;-1.342;2023-03-21T01:08:20;99786.80;;;6.01;38.79
63339;BME280;47485;51.378;-1.342;2023-03-21T01:10:50;99780.07;;;7.19;36.22
63339;BME280;47485;51.378;-1.342;2023-03-21T01:13:20;99784.90;;;8.22;35.36
63339;BME280;47485;51.378;-1.342;2023-03-21T01:15:50;99782.60;;;8.96;35.50
63339;BME280;47485;51.378;-1.342;2023-03-21T01:18:19;99782.27;;;10.01;34.33
63339;BME280;47485;51.378;-1.342;2023-03-21T01:20:47;99783.82;;;6.46;38.51
63339;BME280;47485;51.378;-1.342;2023-03-21T01:23:16;99775.37;;;7.91;37.60
63339;BME280;47485;51.378;-1.342;2023-03-21T01:25:43;99778.11;;;6.82;37.83
63339;BME280;47485;51.378;-1.342;2023-03-21T01:28:09;99772.01;;;6.85;37.82
63339;BME280;47485;51.378;-1.342;2023-03-21T01:30:36;99767.78;;;8.29;35.47
63339;BME280;47485;51.378;-1.342;2023-03-21T01:33:03;99764.98;;;3.46;40.71
63339;BME280;47485;51.378;-1.342;2023-03-21T01:35:31;99760.59;;;5.57;39.23
63339;BME280;47485;51.378;-1.342;2023-03-21T01:37:57;99761.33;;;3.87;40.58
63339;BME280;47485;51.378;-1.342;2023-03-21T01:40:25;99757.85;;;7.77;35.11
63339;BME280;47485;51.378;-1.342;2023-03-21T01:42:52;99748.12;;;7.82;36.40
63339;BME280;47485;51.378;-1.342;2023-03-21T01:47:33;99745.17;;;8.81;36.71
63339;BME280;47485;51.378;-1.342;2023-03-21T01:50:02;99744.08;;;7.62;38.15
63339;BME280;47485;51.378;-1.342;2023-03-21T01:52:32;99741.81;;;6.35;40.22
63339;BME280;47485;51.378;-1.342;2023-03-21T01:55:01;99743.85;;;7.95;37.06
63339;BME280;47485;51.378;-1.342;2023-03-21T01:57:32;99744.55;;;5.40;41.29
63339;BME280;47485;51.378;-1.342;2023-03-21T02:00:05;99742.15;;;4.83;41.31
63339;BME280;47485;51.378;-1.342;2023-03-21T02:02:33;99734.99;;;6.05;39.82
63339;BME280;47485;51.378;-1.342;2023-03-21T02:05:01;99730.64;;;4.70;41.43
63339;BME280;47485;51.378;-1.342;2023-03-21T02:07:30;99720.39;;;4.06;41.65
63339;BME280;47485;51.378;-1.342;2023-03-21T02:09:58;99714.36;;;6.52;40.35
63339;BME280;47485;51.378;-1.342;2023-03-21T02:12:26;99715.68;;;4.38;42.01
63339;BME280;47485;51.378;-1.342;2023-03-21T02:14:55;99713.08;;;2.86;42.97
63339;BME280;47485;51.378;-1.342;2023-03-21T02:17:27;99705.52;;;3.28;42.31
63339;BME280;47485;51.378;-1.342;2023-03-21T02:20:29;99702.82;;;6.36;39.62
63339;BME280;47485;51.378;-1.342;2023-03-21T02:23:27;99701.73;;;4.45;41.96
63339;BME280;47485;51.378;-1.342;2023-03-21T02:27:00;99688.13;;;5.19;40.40
63339;BME280;47485;51.378;-1.342;2023-03-21T02:29:44;99685.59;;;3.99;42.11
63339;BME280;47485;51.378;-1.342;2023-03-21T02:32:23;99680.27;;;4.85;40.61
63339;BME280;47485;51.378;-1.342;2023-03-21T02:35:07;99683.75;;;4.66;41.26
63339;BME280;47485;51.378;-1.342;2023-03-21T02:37:44;99681.37;;;6.08;38.37
63339;BME280;47485;51.378;-1.342;2023-03-21T02:40:15;99678.38;;;4.47;39.55
63339;BME280;47485;51.378;-1.342;2023-03-21T02:42:53;99673.43;;;6.01;38.12
63339;BME280;47485;51.378;-1.342;2023-03-21T02:45:27;99670.94;;;6.82;37.99
63339;BME280;47485;51.378;-1.342;2023-03-21T02:48:00;99668.58;;;5.83;40.99
63339;BME280;47485;51.378;-1.342;2023-03-21T02:50:33;99668.54;;;6.85;41.62
63339;BME280;47485;51.378;-1.342;2023-03-21T02:53:03;99658.31;;;5.19;43.09
63339;BME280;47485;51.378;-1.342;2023-03-21T02:55:34;99652.93;;;5.24;42.49
63339;BME280;47485;51.378;-1.342;2023-03-21T02:58:02;99650.19;;;4.15;44.37
63339;BME280;47485;51.378;-1.342;2023-03-21T03:00:31;99640.17;;;4.71;42.53
63339;BME280;47485;51.378;-1.342;2023-03-21T03:02:58;99631.40;;;4.73;41.94
63339;BME280;47485;51.378;-1.342;2023-03-21T03:05:27;99636.52;;;3.07;44.62
63339;BME280;47485;51.378;-1.342;2023-03-21T03:08:03;99633.39;;;4.58;42.86
63339;BME280;47485;51.378;-1.342;2023-03-21T03:10:41;99631.82;;;4.00;45.48
63339;BME280;47485;51.378;-1.342;2023-03-21T03:13:24;99628.13;;;5.27;42.98
63339;BME280;47485;51.378;-1.342;2023-03-21T03:16:02;99628.22;;;5.98;42.47
63339;BME280;47485;51.378;-1.342;2023-03-21T03:18:40;99634.83;;;4.07;45.97
63339;BME280;47485;51.378;-1.342;2023-03-21T03:21:17;99632.90;;;2.11;46.29
63339;BME280;47485;51.378;-1.342;2023-03-21T03:23:48;99628.27;;;4.17;44.79
63339;BME280;47485;51.378;-1.342;2023-03-21T03:26:18;99625.59;;;0.84;47.73
63339;BME280;47485;51.378;-1.342;2023-03-21T03:28:49;99617.65;;;3.89;45.10
63339;BME280;47485;51.378;-1.342;2023-03-21T03:31:21;99611.54;;;4.69;42.38
63339;BME280;47485;51.378;-1.342;2023-03-21T03:33:51;99608.52;;;4.05;42.40
63339;BME280;47485;51.378;-1.342;2023-03-21T03:36:21;99605.29;;;3.73;43.06
63339;BME280;47485;51.378;-1.342;2023-03-21T03:38:49;99597.96;;;6.17;40.70
63339;BME280;47485;51.378;-1.342;2023-03-21T03:41:21;99595.67;;;6.39;40.10
63339;BME280;47485;51.378;-1.342;2023-03-21T03:43:52;99592.70;;;6.18;42.06
63339;BME280;47485;51.378;-1.342;2023-03-21T03:46:26;99598.25;;;5.39;43.80
63339;BME280;47485;51.378;-1.342;2023-03-21T03:48:56;99601.43;;;3.76;44.24
63339;BME280;47485;51.378;-1.342;2023-03-21T03:51:27;99608.42;;;1.10;47.88
63339;BME280;47485;51.378;-1.342;2023-03-21T03:53:56;99601.59;;;1.74;46.60
63339;BME280;47485;51.378;-1.342;2023-03-21T03:56:25;99599.26;;;4.08;45.73
63339;BME280;47485;51.378;-1.342;2023-03-21T03:58:53;99597.86;;;5.52;44.15
63339;BME280;47485;51.378;-1.342;2023-03-21T04:01:21;99604.43;;;4.18;46.72
63339;BME280;47485;51.378;-1.342;2023-03-21T04:03:48;99612.09;;;3.01;50.64
63339;BME280;47485;51.378;-1.342;2023-03-21T04:06:17;99606.07;;;2.75;49.08
63339;BME280;47485;51.378;-1.342;2023-03-21T04:08:44;99599.26;;;3.20;49.51
63339;BME280;47485;51.378;-1.342;2023-03-21T04:11:13;99594.09;;;3.76;47.30
63339;BME280;47485;51.378;-1.342;2023-03-21T04:13:40;99595.62;;;2.12;49.77
63339;BME280;47485;51.378;-1.342;2023-03-21T04:16:08;99592.39;;;3.78;47.22
63339;BME280;47485;51.378;-1.342;2023-03-21T04:18:35;99593.36;;;4.21;46.22
63339;BME280;47485;51.378;-1.342;2023-03-21T04:21:06;99583.99;;;4.02;46.42
63339;BME280;47485;51.378;-1.342;2023-03-21T04:23:33;99584.32;;;4.89;46.40
63339;BME280;47485;51.378;-1.342;2023-03-21T04:26:00;99578.34;;;3.24;47.69
63339;BME280;47485;51.378;-1.342;2023-03-21T04:28:27;99566.91;;;4.31;46.62
63339;BME280;47485;51.378;-1.342;2023-03-21T04:30:54;99553.75;;;4.90;45.50
63339;BME280;47485;51.378;-1.342;2023-03-21T04:33:20;99546.49;;;4.25;44.08
63339;BME280;47485;51.378;-1.342;2023-03-21T04:35:47;99543.54;;;5.55;43.49
63339;BME280;47485;51.378;-1.342;2023-03-21T04:38:14;99551.28;;;2.55;46.47
63339;BME280;47485;51.378;-1.342;2023-03-21T04:40:41;99546.17;;;4.98;44.55
63339;BME280;47485;51.378;-1.342;2023-03-21T04:43:08;99544.53;;;5.72;43.08
63339;BME280;47485;51.378;-1.342;2023-03-21T04:45:35;99538.92;;;5.06;42.51
63339;BME280;47485;51.378;-1.342;2023-03-21T04:48:02;99537.51;;;2.96;47.48
63339;BME280;47485;51.378;-1.342;2023-03-21T04:50:29;99533.47;;;4.25;46.76
63339;BME280;47485;51.378;-1.342;2023-03-21T04:52:56;99532.27;;;3.35;47.97
63339;BME280;47485;51.378;-1.342;2023-03-21T04:55:23;99525.66;;;3.22;46.40
63339;BME280;47485;51.378;-1.342;2023-03-21T04:57:49;99523.56;;;4.53;47.50
63339;BME280;47485;51.378;-1.342;2023-03-21T05:00:17;99521.37;;;3.73;47.88
63339;BME280;47485;51.378;-1.342;2023-03-21T05:02:44;99524.96;;;3.54;48.35
63339;BME280;47485;51.378;-1.342;2023-03-21T05:05:11;99523.54;;;2.50;46.65
63339;BME280;47485;51.378;-1.342;2023-03-21T05:07:38;99522.02;;;4.34;44.77
63339;BME280;47485;51.378;-1.342;2023-03-21T05:10:06;99523.28;;;4.22;44.19
63339;BME280;47485;51.378;-1.342;2023-03-21T05:12:33;99520.80;;;1.18;49.20
63339;BME280;47485;51.378;-1.342;2023-03-21T05:15:00;99515.52;;;2.80;45.73
63339;BME280;47485;51.378;-1.342;2023-03-21T05:17:26;99519.32;;;2.81;45.94
63339;BME280;47485;51.378;-1.342;2023-03-21T05:19:53;99513.16;;;3.50;45.09
63339;BME280;47485;51.378;-1.342;2023-03-21T05:22:20;99509.11;;;4.14;44.58
63339;BME280;47485;51.378;-1.342;2023-03-21T05:24:46;99503.37;;;5.21;41.65
63339;BME280;47485;51.378;-1.342;2023-03-21T05:27:13;99501.55;;;4.94;42.74
63339;BME280;47485;51.378;-1.342;2023-03-21T05:29:40;99499.17;;;5.84;42.24
63339;BME280;47485;51.378;-1.342;2023-03-21T05:32:07;99510.06;;;2.00;46.62
63339;BME280;47485;51.378;-1.342;2023-03-21T05:34:33;99506.73;;;2.22;46.77
63339;BME280;47485;51.378;-1.342;2023-03-21T05:37:00;99494.22;;;2.15;46.35
63339;BME280;47485;51.378;-1.342;2023-03-21T05:39:27;99487.08;;;5.81;43.26
63339;BME280;47485;51.378;-1.342;2023-03-21T05:41:54;99483.24;;;5.17;44.58
63339;BME280;47485;51.378;-1.342;2023-03-21T05:44:21;99485.15;;;4.29;43.94
63339;BME280;47485;51.378;-1.342;2023-03-21T05:46:48;99483.36;;;3.31;44.86
63339;BME280;47485;51.378;-1.342;2023-03-21T05:49:16;99490.45;;;5.77;42.77
63339;BME280;47485;51.378;-1.342;2023-03-21T05:51:43;99497.15;;;6.28;42.24
63339;BME280;47485;51.378;-1.342;2023-03-21T05:54:09;99490.83;;;6.36;42.34
63339;BME280;47485;51.378;-1.342;2023-03-21T05:56:36;99498.82;;;5.17;45.24
63339;BME280;47485;51.378;-1.342;2023-03-21T05:59:03;99496.64;;;4.32;44.32
63339;BME280;47485;51.378;-1.342;2023-03-21T06:01:30;99492.69;;;3.00;46.76
63339;BME280;47485;51.378;-1.342;2023-03-21T06:03:57;99495.19;;;4.52;45.95
63339;BME280;47485;51.378;-1.342;2023-03-21T06:06:23;99496.37;;;4.31;44.26
63339;BME280;47485;51.378;-1.342;2023-03-21T06:08:50;99503.32;;;1.73;49.60
63339;BME280;47485;51.378;-1.342;2023-03-21T06:11:23;99510.04;;;4.09;46.96
63339;BME280;47485;51.378;-1.342;2023-03-21T06:13:50;99508.17;;;2.90;48.12
63339;BME280;47485;51.378;-1.342;2023-03-21T06:16:17;99501.79;;;6.59;41.90
63339;BME280;47485;51.378;-1.342;2023-03-21T06:18:44;99498.79;;;6.31;43.67
63339;BME280;47485;51.378;-1.342;2023-03-21T06:21:11;99490.59;;;5.77;43.44
63339;BME280;47485;51.378;-1.342;2023-03-21T06:23:38;99488.16;;;4.26;43.82
63339;BME280;47485;51.378;-1.342;2023-03-21T06:26:05;99495.46;;;3.71;45.57
63339;BME280;47485;51.378;-1.342;2023-03-21T06:28:32;99493.58;;;3.63;45.44
63339;BME280;47485;51.378;-1.342;2023-03-21T06:30:59;99492.50;;;4.46;44.79
63339;BME280;47485;51.378;-1.342;2023-03-21T06:33:26;99489.80;;;5.15;43.74
63339;BME280;47485;51.378;-1.342;2023-03-21T06:35:54;99489.05;;;4.02;44.97
63339;BME280;47485;51.378;-1.342;2023-03-21T06:38:22;99491.98;;;5.55;43.75
63339;BME280;47485;51.378;-1.342;2023-03-21T06:40:49;99495.03;;;6.41;42.74
63339;BME280;47485;51.378;-1.342;2023-03-21T06:43:17;99487.63;;;2.65;47.13
63339;BME280;47485;51.378;-1.342;2023-03-21T06:45:43;99486.31;;;6.65;42.13
63339;BME280;47485;51.378;-1.342;2023-03-21T06:48:10;99485.69;;;5.47;43.38
63339;BME280;47485;51.378;-1.342;2023-03-21T06:50:37;99482.35;;;5.87;44.12
63339;BME280;47485;51.378;-1.342;2023-03-21T06:53:04;99482.11;;;4.39;47.71
63339;BME280;47485;51.378;-1.342;2023-03-21T06:55:32;99480.23;;;6.09;44.75
63339;BME280;47485;51.378;-1.342;2023-03-21T06:57:58;99487.88;;;5.75;45.73
63339;BME280;47485;51.378;-1.342;2023-03-21T07:00:25;99481.55;;;5.28;44.01
63339;BME280;47485;51.378;-1.342;2023-03-21T07:02:52;99470.89;;;6.62;42.48
63339;BME280;47485;51.378;-1.342;2023-03-21T07:05:19;99465.13;;;4.82;43.04
63339;BME280;47485;51.378;-1.342;2023-03-21T07:07:45;99461.19;;;8.00;40.83
63339;BME280;47485;51.378;-1.342;2023-03-21T07:10:12;99458.73;;;8.54;38.10
63339;BME280;47485;51.378;-1.342;2023-03-21T07:12:40;99467.10;;;5.39;41.38
63339;BME280;47485;51.378;-1.342;2023-03-21T07:15:08;99465.27;;;6.73;39.07
63339;BME280;47485;51.378;-1.342;2023-03-21T07:17:35;99461.46;;;8.40;36.62
63339;BME280;47485;51.378;-1.342;2023-03-21T07:20:03;99468.73;;;7.29;38.59
63339;BME280;47485;51.378;-1.342;2023-03-21T07:22:29;99477.24;;;7.69;39.00
63339;BME280;47485;51.378;-1.342;2023-03-21T07:24:56;99480.79;;;8.67;38.47
63339;BME280;47485;51.378;-1.342;2023-03-21T07:27:23;99478.15;;;7.36;39.53
63339;BME280;47485;51.378;-1.342;2023-03-21T07:29:50;99488.24;;;6.22;40.62
63339;BME280;47485;51.378;-1.342;2023-03-21T07:32:17;99480.61;;;6.80;40.44
63339;BME280;47485;51.378;-1.342;2023-03-21T07:34:44;99476.55;;;7.47;40.80
63339;BME280;47485;51.378;-1.342;2023-03-21T07:37:11;99474.38;;;7.80;40.10
63339;BME280;47485;51.378;-1.342;2023-03-21T07:39:37;99476.19;;;6.83;41.57
63339;BME280;47485;51.378;-1.342;2023-03-21T07:42:04;99475.34;;;6.66;41.25
63339;BME280;47485;51.378;-1.342;2023-03-21T07:44:31;99476.71;;;7.19;41.02
63339;BME280;47485;51.378;-1.342;2023-03-21T07:46:57;99481.53;;;5.56;41.98
63339;BME280;47485;51.378;-1.342;2023-03-21T07:49:24;99474.02;;;6.87;42.88
63339;BME280;47485;51.378;-1.342;2023-03-21T07:51:51;99471.18;;;6.86;42.67
63339;BME280;47485;51.378;-1.342;2023-03-21T07:54:17;99463.66;;;4.79;43.63
63339;BME280;47485;51.378;-1.342;2023-03-21T07:56:44;99460.49;;;6.65;42.29
63339;BME280;47485;51.378;-1.342;2023-03-21T07:59:11;99464.38;;;7.18;44.38
63339;BME280;47485;51.378;-1.342;2023-03-21T08:01:38;99462.40;;;5.19;45.93
63339;BME280;47485;51.378;-1.342;2023-03-21T08:04:05;99457.48;;;5.95;44.53
63339;BME280;47485;51.378;-1.342;2023-03-21T08:06:31;99456.68;;;5.95;44.60
63339;BME280;47485;51.378;-1.342;2023-03-21T08:08:58;99457.98;;;5.63;46.50
63339;BME280;47485;51.378;-1.342;2023-03-21T08:11:25;99466.07;;;3.84;49.00
63339;BME280;47485;51.378;-1.342;2023-03-21T08:13:51;99461.59;;;6.21;47.78
63339;BME280;47485;51.378;-1.342;2023-03-21T08:16:19;99452.11;;;6.35;46.13
63339;BME280;47485;51.378;-1.342;2023-03-21T08:18:45;99460.70;;;4.54;48.68
63339;BME280;47485;51.378;-1.342;2023-03-21T08:21:12;99470.43;;;4.55;46.78
63339;BME280;47485;51.378;-1.342;2023-03-21T08:23:39;99467.44;;;6.48;44.89
63339;BME280;47485;51.378;-1.342;2023-03-21T08:26:06;99463.73;;;5.83;48.34
63339;BME280;47485;51.378;-1.342;2023-03-21T08:28:33;99460.81;;;4.40;48.96
63339;BME280;47485;51.378;-1.342;2023-03-21T08:31:00;99468.01;;;2.94;52.10
63339;BME280;47485;51.378;-1.342;2023-03-21T08:33:27;99459.56;;;4.31;50.87
63339;BME280;47485;51.378;-1.342;2023-03-21T08:35:53;99456.37;;;4.76;49.63
63339;BME280;47485;51.378;-1.342;2023-03-21T08:38:20;99461.23;;;5.30;48.20
63339;BME280;47485;51.378;-1.342;2023-03-21T08:40:47;99455.57;;;3.77;49.20
63339;BME280;47485;51.378;-1.342;2023-03-21T08:43:16;99459.94;;;5.91;48.08
63339;BME280;47485;51.378;-1.342;2023-03-21T08:45:44;99469.76;;;5.20;49.88
63339;BME280;47485;51.378;-1.342;2023-03-21T08:48:10;99467.63;;;4.08;50.52
63339;BME280;47485;51.378;-1.342;2023-03-21T08:50:37;99470.19;;;4.11;50.93
63339;BME280;47485;51.378;-1.342;2023-03-21T08:53:04;99471.32;;;6.50;48.85
63339;BME280;47485;51.378;-1.342;2023-03-21T08:55:30;99470.42;;;4.20;51.33
63339;BME280;47485;51.378;-1.342;2023-03-21T08:57:57;99476.56;;;5.22;49.84
63339;BME280;47485;51.378;-1.342;2023-03-21T09:00:25;99474.47;;;5.27;47.73
63339;BME280;47485;51.378;-1.342;2023-03-21T09:02:52;99470.98;;;4.77;48.86
63339;BME280;47485;51.378;-1.342;2023-03-21T09:05:19;99475.40;;;5.35;48.91
63339;BME280;47485;51.378;-1.342;2023-03-21T09:07:47;99477.78;;;6.29;47.04
63339;BME280;47485;51.378;-1.342;2023-03-21T09:10:16;99474.01;;;6.49;47.33
63339;BME280;47485;51.378;-1.342;2023-03-21T09:12:44;99478.73;;;5.43;49.12
63339;BME280;47485;51.378;-1.342;2023-03-21T09:15:12;99467.86;;;5.54;48.03
63339;BME280;47485;51.378;-1.342;2023-03-21T09:17:39;99469.82;;;5.11;49.61
63339;BME280;47485;51.378;-1.342;2023-03-21T09:20:08;99476.54;;;4.37;52.27
63339;BME280;47485;51.378;-1.342;2023-03-21T09:22:36;99474.42;;;5.14;48.66
63339;BME280;47485;51.378;-1.342;2023-03-21T09:25:04;99477.81;;;6.25;48.48
63339;BME280;47485;51.378;-1.342;2023-03-21T09:27:31;99474.51;;;6.51;46.27
63339;BME280;47485;51.378;-1.342;2023-03-21T09:29:57;99470.93;;;5.08;48.65
63339;BME280;47485;51.378;-1.342;2023-03-21T09:32:24;99470.35;;;5.91;47.26
63339;BME280;47485;51.378;-1.342;2023-03-21T09:34:51;99473.43;;;5.81;47.55
63339;BME280;47485;51.378;-1.342;2023-03-21T09:37:18;99468.08;;;5.60;47.26
63339;BME280;47485;51.378;-1.342;2023-03-21T09:39:44;99468.49;;;4.66;47.25
63339;BME280;47485;51.378;-1.342;2023-03-21T09:42:19;99473.37;;;6.50;46.64
63339;BME280;47485;51.378;-1.342;2023-03-21T09:44:58;99475.82;;;6.77;44.23
63339;BME280;47485;51.378;-1.342;2023-03-21T09:47:30;99468.35;;;8.32;42.87
63339;BME280;47485;51.378;-1.342;2023-03-21T09:50:00;99468.37;;;6.31;44.83
63339;BME280;47485;51.378;-1.342;2023-03-21T09:52:35;99467.97;;;7.72;43.61
63339;BME280;47485;51.378;-1.342;2023-03-21T09:55:16;99470.55;;;6.08;47.27
63339;BME280;47485;51.378;-1.342;2023-03-21T09:57:45;99470.46;;;7.10;46.69
63339;BME280;47485;51.378;-1.342;2023-03-21T10:00:19;99469.91;;;5.67;48.76
63339;BME280;47485;51.378;-1.342;2023-03-21T10:02:50;99468.05;;;6.33;45.74
63339;BME280;47485;51.378;-1.342;2023-03-21T10:05:20;99473.46;;;4.13;48.29
63339;BME280;47485;51.378;-1.342;2023-03-21T10:07:53;99475.28;;;5.28;48.79
63339;BME280;47485;51.378;-1.342;2023-03-21T10:10:24;99470.18;;;5.89;47.77
63339;BME280;47485;51.378;-1.342;2023-03-21T10:12:54;99475.15;;;7.31;48.30
63339;BME280;47485;51.378;-1.342;2023-03-21T10:15:23;99468.37;;;5.43;47.28
63339;BME280;47485;51.378;-1.342;2023-03-21T10:17:56;99462.54;;;5.55;47.07
63339;BME280;47485;51.378;-1.342;2023-03-21T10:20:25;99456.76;;;7.48;47.00
63339;BME280;47485;51.378;-1.342;2023-03-21T10:22:54;99450.58;;;4.67;47.63
63339;BME280;47485;51.378;-1.342;2023-03-21T10:25:27;99450.09;;;7.37;44.51
63339;BME280;47485;51.378;-1.342;2023-03-21T10:27:56;99446.48;;;5.68;47.53
63339;BME280;47485;51.378;-1.342;2023-03-21T10:30:31;99445.06;;;6.20;46.70
63339;BME280;47485;51.378;-1.342;2023-03-21T10:33:02;99443.55;;;5.37;49.06
63339;BME280;47485;51.378;-1.342;2023-03-21T10:35:30;99439.40;;;4.60;47.31
63339;BME280;47485;51.378;-1.342;2023-03-21T10:37:57;99441.55;;;5.38;47.65
63339;BME280;47485;51.378;-1.342;2023-03-21T10:40:25;99436.04;;;5.28;48.46
63339;BME280;47485;51.378;-1.342;2023-03-21T10:42:54;99437.60;;;5.51;50.07
63339;BME280;47485;51.378;-1.342;2023-03-21T10:45:22;99430.81;;;4.27;49.94
63339;BME280;47485;51.378;-1.342;2023-03-21T10:47:50;99423.58;;;6.66;46.85
63339;BME280;47485;51.378;-1.342;2023-03-21T10:50:19;99423.61;;;5.37;47.25
63339;BME280;47485;51.378;-1.342;2023-03-21T10:52:48;99423.79;;;6.83;46.13
63339;BME280;47485;51.378;-1.342;2023-03-21T10:55:20;99423.79;;;6.57;44.79
63339;BME280;47485;51.378;-1.342;2023-03-21T10:57:52;99423.96;;;5.41;47.81
63339;BME280;47485;51.378;-1.342;2023-03-21T11:00:23;99428.17;;;7.10;47.05
63339;BME280;47485;51.378;-1.342;2023-03-21T11:02:51;99422.79;;;6.40;45.94
63339;BME280;47485;51.378;-1.342;2023-03-21T11:05:21;99418.18;;;6.02;43.53
63339;BME280;47485;51.378;-1.342;2023-03-21T11:07:57;99415.88;;;9.83;40.33
63339;BME280;47485;51.378;-1.342;2023-03-21T11:10:28;99414.36;;;8.11;41.11
63339;BME280;47485;51.378;-1.342;2023-03-21T11:12:56;99418.56;;;7.28;43.97
63339;BME280;47485;51.378;-1.342;2023-03-21T11:15:28;99417.57;;;8.17;41.37
63339;BME280;47485;51.378;-1.342;2023-03-21T11:17:57;99413.67;;;6.71;44.38
63339;BME280;47485;51.378;-1.342;2023-03-21T11:20:24;99419.39;;;6.36;46.08
63339;BME280;47485;51.378;-1.342;2023-03-21T11:22:53;99422.71;;;7.76;43.98
63339;BME280;47485;51.378;-1.342;2023-03-21T11:25:24;99427.60;;;7.92;43.94
63339;BME280;47485;51.378;-1.342;2023-03-21T11:27:52;99432.56;;;7.64;42.39
63339;BME280;47485;51.378;-1.342;2023-03-21T11:30:23;99433.22;;;7.61;41.66
63339;BME280;47485;51.378;-1.342;2023-03-21T11:32:52;99434.72;;;7.14;42.64
63339;BME280;47485;51.378;-1.342;2023-03-21T11:35:23;99431.55;;;6.51;44.36
63339;BME280;47485;51.378;-1.342;2023-03-21T11:37:52;99431.51;;;7.04;43.42
63339;BME280;47485;51.378;-1.342;2023-03-21T11:40:21;99434.47;;;6.82;43.63
63339;BME280;47485;51.378;-1.342;2023-03-21T11:42:50;99429.80;;;7.59;45.13
63339;BME280;47485;51.378;-1.342;2023-03-21T11:45:19;99435.92;;;5.60;47.06
63339;BME280;47485;51.378;-1.342;2023-03-21T11:47:46;99431.35;;;6.93;45.39
63339;BME280;47485;51.378;-1.342;2023-03-21T11:50:19;99437.72;;;7.57;42.49
63339;BME280;47485;51.378;-1.342;2023-03-21T11:52:55;99440.78;;;5.95;47.91
63339;BME280;47485;51.378;-1.342;2023-03-21T11:55:33;99437.44;;;5.54;47.02
63339;BME280;47485;51.378;-1.342;2023-03-21T11:58:13;99448.88;;;6.46;48.41
63339;BME280;47485;51.378;-1.342;2023-03-21T12:00:48;99436.44;;;5.39;46.36
63339;BME280;47485;51.378;-1.342;2023-03-21T12:03:29;99436.65;;;6.87;45.71
63339;BME280;47485;51.378;-1.342;2023-03-21T12:06:12;99426.90;;;6.20;46.05
63339;BME280;47485;51.378;-1.342;2023-03-21T12:08:46;99422.47;;;7.21;43.03
63339;BME280;47485;51.378;-1.342;2023-03-21T12:11:19;99418.32;;;7.17;42.95
63339;BME280;47485;51.378;-1.342;2023-03-21T12:13:56;99412.42;;;6.78;43.37
63339;BME280;47485;51.378;-1.342;2023-03-21T12:16:37;99400.77;;;6.61;41.86
63339;BME280;47485;51.378;-1.342;2023-03-21T12:19:14;99398.78;;;6.41;41.72
63339;BME280;47485;51.378;-1.342;2023-03-21T12:21:53;99406.54;;;8.30;40.83
63339;BME280;47485;51.378;-1.342;2023-03-21T12:24:28;99407.39;;;6.37;41.93
63339;BME280;47485;51.378;-1.342;2023-03-21T12:27:01;99408.06;;;7.18;40.53
63339;BME280;47485;51.378;-1.342;2023-03-21T12:29:39;99416.35;;;8.29;40.55
63339;BME280;47485;51.378;-1.342;2023-03-21T12:32:20;99414.84;;;6.72;41.64
63339;BME280;47485;51.378;-1.342;2023-03-21T12:35:04;99412.46;;;6.57;42.60
63339;BME280;47485;51.378;-1.342;2023-03-21T12:37:41;99410.96;;;7.02;43.57
63339;BME280;47485;51.378;-1.342;2023-03-21T12:40:20;99404.54;;;5.81;42.77
63339;BME280;47485;51.378;-1.342;2023-03-21T12:43:01;99405.52;;;6.66;43.70
63339;BME280;47485;51.378;-1.342;2023-03-21T12:45:36;99396.67;;;7.14;42.60
63339;BME280;47485;51.378;-1.342;2023-03-21T12:48:15;99393.01;;;7.91;42.35
63339;BME280;47485;51.378;-1.342;2023-03-21T12:50:44;99384.76;;;5.63;44.14
63339;BME280;47485;51.378;-1.342;2023-03-21T12:53:25;99381.67;;;9.76;39.54
63339;BME280;47485;51.378;-1.342;2023-03-21T12:55:57;99378.10;;;8.30;38.73
63339;BME280;47485;51.378;-1.342;2023-03-21T12:58:27;99381.45;;;8.01;39.05
63339;BME280;47485;51.378;-1.342;2023-03-21T13:00:58;99385.98;;;7.47;41.74
63339;BME280;47485;51.378;-1.342;2023-03-21T13:03:30;99376.80;;;7.92;41.22
63339;BME280;47485;51.378;-1.342;2023-03-21T13:06:00;99374.06;;;6.55;41.84
63339;BME280;47485;51.378;-1.342;2023-03-21T13:08:32;99370.91;;;8.22;40.95
63339;BME280;47485;51.378;-1.342;2023-03-21T13:11:00;99371.78;;;7.40;42.07
63339;BME280;47485;51.378;-1.342;2023-03-21T13:13:32;99383.20;;;6.46;43.11
63339;BME280;47485;51.378;-1.342;2023-03-21T13:16:06;99385.07;;;6.07;43.17